createdAt,value
2023-04-30T00:02:05.678Z,98298.75
2023-04-30T00:04:51.938Z,98298.34
2023-04-30T00:07:41.165Z,98298.97
2023-04-30T00:10:28.154Z,98297.28
2023-04-30T00:13:21.221Z,98307.69
2023-04-30T00:15:48.188Z,98305.59
2023-04-30T00:18:15.126Z,98291.06
2023-04-30T00:20:42.082Z,98288.78
2023-04-30T00:23:09.304Z,98291.69
2023-04-30T00:25:36.358Z,98259.81
2023-04-30T00:28:03.284Z,98285.00
2023-04-30T00:30:30.488Z,98294.78
2023-04-30T00:32:57.417Z,98298.53
2023-04-30T00:35:24.445Z,98301.66
2023-04-30T00:37:51.372Z,98304.75
2023-04-30T00:40:18.409Z,98300.19
2023-04-30T00:42:45.274Z,98306.22
2023-04-30T00:45:12.302Z,98309.13
2023-04-30T00:47:39.418Z,98309.13
2023-04-30T00:50:07.174Z,98303.88
2023-04-30T00:52:34.143Z,98301.78
2023-04-30T00:55:01.167Z,98315.94
2023-04-30T00:57:28.912Z,98310.50
2023-04-30T00:59:56.220Z,98320.50
2023-04-30T01:02:24.045Z,98318.84
2023-04-30T01:04:52.400Z,98315.06
2023-04-30T01:07:41.673Z,98314.66
2023-04-30T01:10:28.794Z,98318.38
2023-04-30T01:13:49.403Z,98313.22
2023-04-30T01:16:44.787Z,98320.91
2023-04-30T01:19:46.997Z,98326.69
2023-04-30T01:22:42.428Z,98327.06
2023-04-30T01:25:24.619Z,98332.28
2023-04-30T01:28:01.943Z,98312.69
2023-04-30T01:30:32.011Z,98338.47
2023-04-30T01:32:59.422Z,98330.38
2023-04-30T01:35:51.893Z,98325.38
2023-04-30T01:38:36.788Z,98340.13
2023-04-30T01:41:14.079Z,98340.56
2023-04-30T01:43:57.531Z,98341.16
2023-04-30T01:46:31.415Z,98329.53
2023-04-30T01:49:25.989Z,98344.94
2023-04-30T01:52:04.079Z,98346.16
2023-04-30T01:54:34.470Z,98341.63
2023-04-30T01:57:07.020Z,98348.25
2023-04-30T01:59:37.092Z,98325.75
2023-04-30T02:02:04.099Z,98343.88
2023-04-30T02:04:31.127Z,98348.00
2023-04-30T02:06:59.045Z,98339.50
2023-04-30T02:09:26.089Z,98343.03
2023-04-30T02:11:53.038Z,98329.34
2023-04-30T02:14:20.002Z,98345.97
2023-04-30T02:16:46.955Z,98346.56
2023-04-30T02:19:13.898Z,98352.34
2023-04-30T02:21:40.846Z,98316.97
2023-04-30T02:24:07.738Z,98350.44
2023-04-30T02:26:34.718Z,98349.38
2023-04-30T02:29:01.836Z,98355.63
2023-04-30T02:31:28.769Z,98354.31
2023-04-30T02:33:55.747Z,98358.28
2023-04-30T02:36:22.727Z,98351.38
2023-04-30T02:38:49.668Z,98371.78
2023-04-30T02:41:16.615Z,98358.50
2023-04-30T02:43:43.541Z,98360.97
2023-04-30T02:46:10.517Z,98366.78
2023-04-30T02:48:37.520Z,98361.41
2023-04-30T02:51:04.986Z,98366.78
2023-04-30T02:53:31.940Z,98361.81
2023-04-30T02:55:59.488Z,98375.91
2023-04-30T02:58:26.840Z,98372.53
2023-04-30T03:00:53.796Z,98385.63
2023-04-30T03:03:20.891Z,98384.66
2023-04-30T03:05:48.014Z,98400.91
2023-04-30T03:08:14.969Z,98391.63
2023-04-30T03:10:41.910Z,98399.31
2023-04-30T03:13:08.874Z,98407.91
2023-04-30T03:15:35.863Z,98405.28
2023-04-30T03:18:02.862Z,98403.69
2023-04-30T03:20:29.761Z,98417.16
2023-04-30T03:22:56.825Z,98417.28
2023-04-30T03:25:23.712Z,98418.69
2023-04-30T03:27:50.738Z,98426.22
2023-04-30T03:30:17.742Z,98432.84
2023-04-30T03:32:44.764Z,98435.13
2023-04-30T03:35:11.746Z,98426.06
2023-04-30T03:37:38.671Z,98431.19
2023-04-30T03:40:06.986Z,98454.56
2023-04-30T03:42:33.957Z,98449.56
2023-04-30T03:45:01.215Z,98462.00
2023-04-30T03:47:28.218Z,98461.78
2023-04-30T03:49:55.828Z,98455.59
2023-04-30T03:52:23.094Z,98464.88
2023-04-30T03:54:50.014Z,98463.75
2023-04-30T03:57:16.954Z,98472.31
2023-04-30T03:59:44.012Z,98472.03
2023-04-30T04:02:11.022Z,98479.06
2023-04-30T04:04:38.014Z,98483.34
2023-04-30T04:07:05.036Z,98503.75
2023-04-30T04:09:31.952Z,98503.75
2023-04-30T04:11:58.862Z,98504.94
2023-04-30T04:14:25.747Z,98501.16
2023-04-30T04:16:52.846Z,98506.97
2023-04-30T04:19:20.047Z,98526.38
2023-04-30T04:21:46.965Z,98514.03
2023-04-30T04:24:13.935Z,98525.91
2023-04-30T04:26:41.618Z,98527.50
2023-04-30T04:29:11.278Z,98532.97
2023-04-30T04:31:38.850Z,98526.75
2023-04-30T04:34:05.945Z,98536.22
2023-04-30T04:36:34.365Z,98545.97
2023-04-30T04:39:04.275Z,98544.50
2023-04-30T04:41:38.484Z,98548.00
2023-04-30T04:44:05.565Z,98548.00
2023-04-30T04:46:32.988Z,98555.84
2023-04-30T04:49:00.161Z,98556.97
2023-04-30T04:51:27.479Z,98547.22
2023-04-30T04:53:54.471Z,98567.41
2023-04-30T04:56:21.625Z,98577.56
2023-04-30T04:58:48.546Z,98573.50
2023-04-30T05:01:15.681Z,98578.50
2023-04-30T05:03:42.721Z,98587.25
2023-04-30T05:06:09.722Z,98584.91
2023-04-30T05:08:36.735Z,98582.72
2023-04-30T05:11:03.655Z,98591.25
2023-04-30T05:13:30.576Z,98594.31
2023-04-30T05:15:57.572Z,98596.31
2023-04-30T05:18:24.715Z,98602.28
2023-04-30T05:20:51.665Z,98603.78
2023-04-30T05:23:18.548Z,98616.84
2023-04-30T05:25:45.892Z,98615.75
2023-04-30T05:28:12.881Z,98618.38
2023-04-30T05:30:39.780Z,98621.53
2023-04-30T05:33:06.871Z,98628.13
2023-04-30T05:35:36.350Z,98620.13
2023-04-30T05:38:03.996Z,98629.50
2023-04-30T05:40:32.789Z,98632.19
2023-04-30T05:42:59.707Z,98625.34
2023-04-30T05:45:27.124Z,98634.19
2023-04-30T05:47:54.105Z,98639.19
2023-04-30T05:50:21.070Z,98639.69
2023-04-30T05:52:48.026Z,98645.41
2023-04-30T05:55:14.956Z,98633.72
2023-04-30T05:57:41.890Z,98650.06
2023-04-30T06:00:09.456Z,98649.16
2023-04-30T06:02:36.643Z,98654.91
2023-04-30T06:05:04.010Z,98658.44
2023-04-30T06:07:31.058Z,98665.41
2023-04-30T06:09:58.054Z,98661.34
2023-04-30T06:12:25.336Z,98666.06
2023-04-30T06:14:53.032Z,98655.38
2023-04-30T06:17:20.100Z,98663.72
2023-04-30T06:19:47.088Z,98671.91
2023-04-30T06:22:13.980Z,98665.56
2023-04-30T06:24:40.951Z,98671.34
2023-04-30T06:27:07.878Z,98674.16
2023-04-30T06:29:34.772Z,98658.16
2023-04-30T06:32:01.704Z,98681.25
2023-04-30T06:34:28.672Z,98676.25
2023-04-30T06:36:55.599Z,98672.72
2023-04-30T06:39:22.578Z,98673.16
2023-04-30T06:41:49.499Z,98674.00
2023-04-30T06:44:17.372Z,98676.19
2023-04-30T06:46:44.355Z,98671.25
2023-04-30T06:49:11.361Z,98678.44
2023-04-30T06:51:38.306Z,98682.84
2023-04-30T06:54:05.320Z,98689.38
2023-04-30T06:56:32.210Z,98687.41
2023-04-30T06:58:59.142Z,98685.06
2023-04-30T07:01:26.074Z,98687.78
2023-04-30T07:03:55.258Z,98687.06
2023-04-30T07:06:22.730Z,98685.47
2023-04-30T07:08:49.747Z,98684.34
2023-04-30T07:11:17.151Z,98690.56
2023-04-30T07:13:44.157Z,98677.25
2023-04-30T07:16:11.525Z,98687.44
2023-04-30T07:18:39.230Z,98696.66
2023-04-30T07:21:06.634Z,98693.31
2023-04-30T07:23:33.508Z,98689.72
2023-04-30T07:26:00.722Z,98698.94
2023-04-30T07:28:27.661Z,98698.91
2023-04-30T07:30:54.598Z,98711.78
2023-04-30T07:33:22.400Z,98703.22
2023-04-30T07:35:49.331Z,98700.88
2023-04-30T07:38:17.666Z,98704.59
2023-04-30T07:40:44.578Z,98706.91
2023-04-30T07:43:12.109Z,98715.09
2023-04-30T07:45:39.031Z,98705.34
2023-04-30T07:48:06.078Z,98717.34
2023-04-30T07:50:36.013Z,98722.84
2023-04-30T07:53:03.259Z,98718.97
2023-04-30T07:55:30.322Z,98729.22
2023-04-30T07:57:57.186Z,98715.50
2023-04-30T08:00:24.306Z,98724.84
2023-04-30T08:02:51.338Z,98724.06
2023-04-30T08:05:18.448Z,98718.06
2023-04-30T08:07:45.360Z,98724.63
2023-04-30T08:10:12.856Z,98715.88
2023-04-30T08:12:39.861Z,98702.75
2023-04-30T08:15:10.220Z,98721.91
2023-04-30T08:17:37.212Z,98711.28
2023-04-30T08:20:05.281Z,98728.34
2023-04-30T08:22:32.369Z,98738.41
2023-04-30T08:25:02.053Z,98732.75
2023-04-30T08:27:31.542Z,98728.38
2023-04-30T08:29:58.819Z,98742.56
2023-04-30T08:32:26.260Z,98733.81
2023-04-30T08:34:54.650Z,98724.63
2023-04-30T08:37:22.178Z,98727.09
2023-04-30T08:39:49.082Z,98736.72
2023-04-30T08:42:17.780Z,98740.88
2023-04-30T08:44:46.818Z,98737.94
2023-04-30T08:47:14.831Z,98741.50
2023-04-30T08:49:42.198Z,98732.97
2023-04-30T08:52:09.802Z,98735.19
2023-04-30T08:54:37.642Z,98734.31
2023-04-30T08:57:05.561Z,98734.22
2023-04-30T08:59:32.533Z,98737.97
2023-04-30T09:02:02.379Z,98744.22
2023-04-30T09:04:29.608Z,98742.16
2023-04-30T09:06:59.674Z,98736.28
2023-04-30T09:09:31.047Z,98738.53
2023-04-30T09:12:21.268Z,98735.16
2023-04-30T09:15:06.445Z,98740.38
2023-04-30T09:17:34.602Z,98739.53
2023-04-30T09:20:12.437Z,98751.69
2023-04-30T09:22:41.021Z,98745.09
2023-04-30T09:25:09.141Z,98752.47
2023-04-30T09:27:36.339Z,98753.53
2023-04-30T09:30:04.872Z,98753.53
2023-04-30T09:32:32.063Z,98739.41
2023-04-30T09:34:59.003Z,98750.47
2023-04-30T09:37:39.118Z,98753.41
2023-04-30T09:40:06.962Z,98759.41
2023-04-30T09:42:33.938Z,98754.78
2023-04-30T09:45:00.977Z,98752.56
2023-04-30T09:47:30.957Z,98739.75
2023-04-30T09:50:00.441Z,98747.72
2023-04-30T09:52:27.515Z,98757.19
2023-04-30T09:54:54.475Z,98749.06
2023-04-30T09:57:24.693Z,98738.97
2023-04-30T09:59:54.017Z,98734.34
2023-04-30T10:02:23.843Z,98739.44
2023-04-30T10:04:56.800Z,98729.31
2023-04-30T10:07:26.567Z,98737.75
2023-04-30T10:10:07.801Z,98727.41
2023-04-30T10:12:50.645Z,98728.31
2023-04-30T10:15:40.304Z,98737.28
2023-04-30T10:18:17.632Z,98718.22
2023-04-30T10:20:48.197Z,98730.09
2023-04-30T10:23:15.667Z,98724.06
2023-04-30T10:25:44.973Z,98730.44
2023-04-30T10:28:12.891Z,98731.00
2023-04-30T10:30:41.892Z,98733.38
2023-04-30T10:33:20.973Z,98727.41
2023-04-30T10:35:57.662Z,98729.97
2023-04-30T10:38:27.943Z,98735.22
2023-04-30T10:40:59.158Z,98713.09
2023-04-30T10:43:27.106Z,98717.81
2023-04-30T10:45:54.154Z,98732.16
2023-04-30T10:48:27.407Z,98730.94
2023-04-30T10:50:59.849Z,98728.94
2023-04-30T10:53:30.582Z,98717.09
2023-04-30T10:56:10.038Z,98713.41
2023-04-30T10:58:39.063Z,98709.44
2023-04-30T11:01:17.671Z,98694.88
2023-04-30T11:04:08.854Z,98726.03
2023-04-30T11:07:08.806Z,98719.97
2023-04-30T11:09:38.007Z,98719.25
2023-04-30T11:12:28.830Z,98721.22
2023-04-30T11:15:06.485Z,98720.16
2023-04-30T11:17:34.333Z,98718.66
2023-04-30T11:20:03.758Z,98722.50
2023-04-30T11:22:36.052Z,98721.38
2023-04-30T11:25:04.894Z,98707.44
2023-04-30T11:27:35.972Z,98721.66
2023-04-30T11:30:05.585Z,98715.41
2023-04-30T11:32:35.640Z,98708.91
2023-04-30T11:35:04.615Z,98721.22
2023-04-30T11:37:37.833Z,98719.25
2023-04-30T11:40:11.326Z,98727.75
2023-04-30T11:42:39.749Z,98718.91
2023-04-30T11:45:18.118Z,98728.97
2023-04-30T11:47:48.332Z,98728.09
2023-04-30T11:50:21.480Z,98722.47
2023-04-30T11:52:55.773Z,98720.75
2023-04-30T11:55:25.249Z,98716.28
2023-04-30T11:57:56.048Z,98708.09
2023-04-30T12:00:28.244Z,98694.56
2023-04-30T12:02:56.157Z,98697.13
2023-04-30T12:05:28.407Z,98723.53
2023-04-30T12:07:59.771Z,98713.91
2023-04-30T12:10:27.540Z,98725.47
2023-04-30T12:12:55.524Z,98725.28
2023-04-30T12:15:27.384Z,98720.25
2023-04-30T12:17:56.511Z,98728.88
2023-04-30T12:20:26.173Z,98722.72
2023-04-30T12:22:53.395Z,98712.69
2023-04-30T12:25:22.736Z,98709.75
2023-04-30T12:27:53.979Z,98712.00
2023-04-30T12:30:22.497Z,98710.50
2023-04-30T12:32:52.741Z,98712.31
2023-04-30T12:35:22.810Z,98698.22
2023-04-30T12:37:52.449Z,98690.19
2023-04-30T12:40:22.149Z,98702.19
2023-04-30T12:42:49.232Z,98711.19
2023-04-30T12:45:52.044Z,98712.63
2023-04-30T12:48:21.263Z,98692.97
2023-04-30T12:50:55.999Z,98702.13
2023-04-30T12:53:24.318Z,98696.78
2023-04-30T12:56:15.662Z,98698.38
2023-04-30T12:58:50.011Z,98699.28
2023-04-30T13:01:23.246Z,98697.22
2023-04-30T13:03:51.008Z,98697.84
2023-04-30T13:06:18.764Z,98696.63
2023-04-30T13:08:58.048Z,98648.03
2023-04-30T13:11:27.188Z,98693.09
2023-04-30T13:13:57.637Z,98696.69
2023-04-30T13:16:25.440Z,98674.59
2023-04-30T13:18:53.022Z,98687.19
2023-04-30T13:21:20.937Z,98675.28
2023-04-30T13:23:53.125Z,98683.69
2023-04-30T13:26:23.478Z,98682.53
2023-04-30T13:28:50.704Z,98678.38
2023-04-30T13:31:17.829Z,98676.59
2023-04-30T13:33:44.803Z,98675.94
2023-04-30T13:36:12.104Z,98684.31
2023-04-30T13:38:39.681Z,98678.09
2023-04-30T13:41:06.911Z,98675.34
2023-04-30T13:43:33.912Z,98683.38
2023-04-30T13:46:00.857Z,98685.78
2023-04-30T13:48:27.763Z,98691.16
2023-04-30T13:50:55.013Z,98688.31
2023-04-30T13:53:21.938Z,98689.16
2023-04-30T13:55:48.852Z,98676.97
2023-04-30T13:58:16.163Z,98673.63
2023-04-30T14:00:43.222Z,98681.03
2023-04-30T14:03:11.633Z,98652.00
2023-04-30T14:05:39.523Z,98683.31
2023-04-30T14:08:06.643Z,98680.53
2023-04-30T14:10:33.591Z,98685.44
2023-04-30T14:13:00.580Z,98683.44
2023-04-30T14:15:30.788Z,98692.38
2023-04-30T14:17:57.782Z,98683.53
2023-04-30T14:20:25.545Z,98691.16
2023-04-30T14:22:52.675Z,98681.09
2023-04-30T14:25:19.579Z,98678.97
2023-04-30T14:27:47.664Z,98674.44
2023-04-30T14:30:14.652Z,98690.94
2023-04-30T14:32:41.929Z,98650.88
2023-04-30T14:35:09.976Z,98681.56
2023-04-30T14:37:36.953Z,98691.75
2023-04-30T14:40:05.433Z,98689.06
2023-04-30T14:42:33.521Z,98684.28
2023-04-30T14:45:00.423Z,98684.44
2023-04-30T14:47:28.535Z,98686.78
2023-04-30T14:49:56.015Z,98695.66
2023-04-30T14:52:23.331Z,98688.59
2023-04-30T14:54:50.338Z,98691.25
2023-04-30T14:57:18.795Z,98687.38
2023-04-30T14:59:45.738Z,98691.09
2023-04-30T15:02:12.816Z,98685.97
2023-04-30T15:04:40.309Z,98695.94
2023-04-30T15:07:07.468Z,98693.50
2023-04-30T15:09:34.515Z,98690.72
2023-04-30T15:12:01.421Z,98690.94
2023-04-30T15:14:28.351Z,98683.50
2023-04-30T15:16:55.428Z,98697.16
2023-04-30T15:19:22.628Z,98687.47
2023-04-30T15:21:49.564Z,98698.66
2023-04-30T15:24:18.156Z,98693.88
2023-04-30T15:26:45.365Z,98689.00
2023-04-30T15:29:12.354Z,98697.00
2023-04-30T15:31:39.350Z,98693.91
2023-04-30T15:34:06.315Z,98688.00
2023-04-30T15:36:33.456Z,98678.31
2023-04-30T15:39:00.426Z,98693.09
2023-04-30T15:41:27.321Z,98693.81
2023-04-30T15:43:54.261Z,98691.88
2023-04-30T15:46:21.332Z,98688.91
2023-04-30T15:48:48.252Z,98689.06
2023-04-30T15:51:15.144Z,98688.31
2023-04-30T15:53:42.090Z,98698.13
2023-04-30T15:56:09.911Z,98687.69
2023-04-30T15:58:37.043Z,98695.03
2023-04-30T16:01:03.963Z,98695.03
2023-04-30T16:03:31.722Z,98686.94
2023-04-30T16:06:01.153Z,98694.25
2023-04-30T16:08:28.713Z,98699.03
2023-04-30T16:10:55.840Z,98695.94
2023-04-30T16:13:22.746Z,98700.31
2023-04-30T16:15:50.375Z,98697.31
2023-04-30T16:18:17.399Z,98693.44
2023-04-30T16:20:47.387Z,98685.69
2023-04-30T16:23:14.553Z,98689.06
2023-04-30T16:25:41.498Z,98687.75
2023-04-30T16:28:08.391Z,98671.06
2023-04-30T16:30:35.523Z,98693.59
2023-04-30T16:33:02.452Z,98689.88
2023-04-30T16:35:29.537Z,98687.50
2023-04-30T16:37:56.503Z,98699.91
2023-04-30T16:40:23.595Z,98689.97
2023-04-30T16:42:50.651Z,98701.69
2023-04-30T16:45:17.596Z,98693.88
2023-04-30T16:47:45.369Z,98692.69
2023-04-30T16:50:12.328Z,98696.72
2023-04-30T16:52:39.203Z,98695.59
2023-04-30T16:55:06.620Z,98696.00
2023-04-30T16:57:33.528Z,98695.88
2023-04-30T17:00:00.468Z,98698.53
2023-04-30T17:02:27.686Z,98704.78
2023-04-30T17:04:54.714Z,98710.03
2023-04-30T17:07:21.674Z,98720.16
2023-04-30T17:09:48.597Z,98713.38
2023-04-30T17:12:15.537Z,98736.97
2023-04-30T17:14:42.451Z,98720.84
2023-04-30T17:17:09.398Z,98736.19
2023-04-30T17:19:36.340Z,98733.97
2023-04-30T17:22:03.248Z,98735.00
2023-04-30T17:24:30.263Z,98737.81
2023-04-30T17:26:59.502Z,98743.03
2023-04-30T17:29:26.476Z,98749.50
2023-04-30T17:31:53.511Z,98748.88
2023-04-30T17:34:20.916Z,98748.53
2023-04-30T17:36:49.129Z,98743.94
2023-04-30T17:39:17.199Z,98755.03
2023-04-30T17:41:44.083Z,98755.88
2023-04-30T17:44:11.979Z,98755.91
2023-04-30T17:46:39.821Z,98766.34
2023-04-30T17:49:07.130Z,98763.03
2023-04-30T17:51:34.304Z,98773.22
2023-04-30T17:54:01.289Z,98777.97
2023-04-30T17:56:31.528Z,98777.75
2023-04-30T17:58:59.074Z,98784.22
2023-04-30T18:01:27.102Z,98791.69
2023-04-30T18:03:54.228Z,98786.63
2023-04-30T18:06:21.447Z,98790.56
2023-04-30T18:08:48.421Z,98789.44
2023-04-30T18:11:15.291Z,98789.00
2023-04-30T18:13:42.860Z,98781.44
2023-04-30T18:16:09.921Z,98794.34
2023-04-30T18:18:37.326Z,98787.81
2023-04-30T18:21:04.430Z,98789.25
2023-04-30T18:23:31.409Z,98779.22
2023-04-30T18:25:58.586Z,98783.94
2023-04-30T18:28:25.717Z,98793.03
2023-04-30T18:30:52.605Z,98793.84
2023-04-30T18:33:19.593Z,98762.66
2023-04-30T18:35:51.675Z,98806.91
2023-04-30T18:38:19.010Z,98795.34
2023-04-30T18:40:45.979Z,98810.28
2023-04-30T18:43:14.297Z,98799.97
2023-04-30T18:45:41.306Z,98805.94
2023-04-30T18:48:08.334Z,98787.50
2023-04-30T18:50:35.301Z,98811.03
2023-04-30T18:53:02.324Z,98816.09
2023-04-30T18:55:29.213Z,98819.31
2023-04-30T18:57:56.865Z,98814.97
2023-04-30T19:00:23.783Z,98822.06
2023-04-30T19:02:50.822Z,98822.09
2023-04-30T19:05:18.129Z,98827.28
2023-04-30T19:07:45.333Z,98823.94
2023-04-30T19:10:12.390Z,98834.53
2023-04-30T19:12:39.459Z,98833.78
2023-04-30T19:15:08.456Z,98841.81
2023-04-30T19:17:35.596Z,98832.78
2023-04-30T19:20:02.657Z,98849.22
2023-04-30T19:22:29.567Z,98833.63
2023-04-30T19:24:56.486Z,98842.38
2023-04-30T19:27:23.509Z,98841.03
2023-04-30T19:29:53.624Z,98852.19
2023-04-30T19:32:21.393Z,98845.84
2023-04-30T19:34:48.455Z,98854.78
2023-04-30T19:37:15.532Z,98833.53
2023-04-30T19:39:42.434Z,98853.72
2023-04-30T19:42:09.487Z,98858.97
2023-04-30T19:44:36.712Z,98859.69
2023-04-30T19:47:05.124Z,98865.94
2023-04-30T19:49:34.554Z,98853.56
2023-04-30T19:52:02.543Z,98861.34
2023-04-30T19:54:29.649Z,98860.88
2023-04-30T19:56:58.126Z,98858.75
2023-04-30T19:59:27.016Z,98849.38
2023-04-30T20:01:53.996Z,98860.97
2023-04-30T20:04:21.113Z,98856.81
2023-04-30T20:06:48.471Z,98860.00
2023-04-30T20:09:15.656Z,98852.13
2023-04-30T20:11:42.614Z,98873.28
2023-04-30T20:15:15.191Z,98864.25
2023-04-30T20:17:42.354Z,98857.88
2023-04-30T20:20:09.621Z,98810.59
2023-04-30T20:22:36.501Z,98864.47
2023-04-30T20:25:04.058Z,98854.19
2023-04-30T20:27:31.037Z,98826.03
2023-04-30T20:29:58.575Z,98865.97
2023-04-30T20:32:25.684Z,98869.31
2023-04-30T20:34:53.038Z,98864.25
2023-04-30T20:37:19.914Z,98856.69
2023-04-30T20:39:46.861Z,98878.00
2023-04-30T20:42:13.838Z,98869.56
2023-04-30T20:44:40.901Z,98862.50
2023-04-30T20:47:09.918Z,98862.31
2023-04-30T20:49:37.636Z,98802.34
2023-04-30T20:52:04.727Z,98857.75
2023-04-30T20:54:31.659Z,98861.44
2023-04-30T20:56:58.669Z,98869.81
2023-04-30T20:59:25.627Z,98858.84
2023-04-30T21:01:52.556Z,98867.91
2023-04-30T21:04:19.593Z,98875.78
2023-04-30T21:06:46.582Z,98863.53
2023-04-30T21:09:13.594Z,98881.41
2023-04-30T21:11:41.965Z,98857.88
2023-04-30T21:14:11.872Z,98812.53
2023-04-30T21:16:40.948Z,98889.09
2023-04-30T21:19:07.962Z,98880.38
2023-04-30T21:21:34.946Z,98885.41
2023-04-30T21:24:01.856Z,98882.69
2023-04-30T21:26:28.758Z,98890.47
2023-04-30T21:28:55.779Z,98895.44
2023-04-30T21:31:23.998Z,98892.38
2023-04-30T21:33:50.907Z,98900.94
2023-04-30T21:36:18.431Z,98900.47
2023-04-30T21:38:45.388Z,98895.09
2023-04-30T21:41:16.470Z,98899.66
2023-04-30T21:43:44.181Z,98902.66
2023-04-30T21:46:11.304Z,98903.38
2023-04-30T21:48:41.419Z,98912.25
2023-04-30T21:51:13.290Z,98915.41
2023-04-30T21:53:40.267Z,98911.81
2023-04-30T21:56:11.174Z,98917.88
2023-04-30T21:58:39.283Z,98923.72
2023-04-30T22:01:06.646Z,98909.06
2023-04-30T22:03:35.108Z,98932.53
2023-04-30T22:06:02.587Z,98934.97
2023-04-30T22:08:29.640Z,98929.41
2023-04-30T22:11:00.607Z,98931.25
2023-04-30T22:13:31.316Z,98932.22
2023-04-30T22:15:58.295Z,98928.50
2023-04-30T22:18:25.339Z,98930.66
2023-04-30T22:20:52.717Z,98926.66
2023-04-30T22:23:22.886Z,98931.75
2023-04-30T22:25:51.148Z,98922.09
2023-04-30T22:28:19.437Z,98934.19
2023-04-30T22:30:46.438Z,98943.13
2023-04-30T22:33:13.407Z,98945.81
2023-04-30T22:35:40.564Z,98941.72
2023-04-30T22:38:08.282Z,98947.69
2023-04-30T22:40:39.338Z,98951.66
2023-04-30T22:43:06.459Z,98949.13
2023-04-30T22:45:37.498Z,98945.69
2023-04-30T22:48:05.025Z,98947.91
2023-04-30T22:50:32.348Z,98949.28
2023-04-30T22:52:59.927Z,98948.56
2023-04-30T22:55:27.453Z,98949.25
2023-04-30T22:57:54.349Z,98951.25
2023-04-30T23:00:21.382Z,98945.91
2023-04-30T23:02:48.339Z,98948.34
2023-04-30T23:05:15.421Z,98964.94
2023-04-30T23:07:42.325Z,98961.72
2023-04-30T23:10:09.611Z,98954.59
2023-04-30T23:12:36.507Z,98954.41
2023-04-30T23:15:04.203Z,98959.75
2023-04-30T23:17:31.152Z,98957.88
2023-04-30T23:19:58.568Z,98955.22
2023-04-30T23:22:25.676Z,98954.81
2023-04-30T23:24:52.718Z,98951.03
2023-04-30T23:27:19.661Z,98960.56
2023-04-30T23:29:46.552Z,98935.03
2023-04-30T23:32:13.492Z,98958.03
2023-04-30T23:34:40.709Z,98957.50
2023-04-30T23:37:07.763Z,98953.97
2023-04-30T23:39:34.640Z,98957.38
2023-04-30T23:42:02.753Z,98958.91
2023-04-30T23:44:32.104Z,98960.50
2023-04-30T23:47:01.102Z,98957.97
2023-04-30T23:49:28.083Z,98953.19
2023-04-30T23:51:54.978Z,98951.91
2023-04-30T23:54:22.562Z,98944.34
2023-04-30T23:56:49.999Z,98955.13
2023-04-30T23:59:16.965Z,98956.41
